Time;durP1;ratioP1;P1;durP2;ratioP2;P2;SDS_P1;SDS_P2;PMS_P1;PMS_P2;Temp;Humidity;BMP_temperature;BMP_pressure;BME280_temperature;BME280_humidity;BME280_pressure;Samples;Min_cycle;Max_cycle;Signal;HPM_P1;HPM_P2
2021/10/09 00:00:58;;;;;;;30.15;24.95;;;12.70;99.90;;;;;;2082574;28;20025;-69
2021/10/09 00:01:58;;;;;;;24.95;22.10;;;12.70;99.90;;;;;;2082028;28;20471;-69
2021/10/09 00:02:59;;;;;;;27.13;24.25;;;12.60;99.90;;;;;;2082165;28;20045;-69
2021/10/09 00:03:59;;;;;;;27.73;22.50;;;12.60;99.90;;;;;;2082112;28;20032;-69
2021/10/09 00:05:01;;;;;;;26.27;23.58;;;12.70;99.90;;;;;;2083433;28;20033;-69
2021/10/09 00:06:02;;;;;;;27.35;22.63;;;12.60;99.90;;;;;;2082186;28;20013;-69
2021/10/09 00:07:03;;;;;;;26.38;23.55;;;12.60;99.90;;;;;;2082535;28;20029;-69
2021/10/09 00:08:04;;;;;;;25.33;22.73;;;12.60;99.90;;;;;;2081995;28;20025;-69
2021/10/09 00:09:04;;;;;;;27.90;24.90;;;12.60;99.90;;;;;;2081820;28;20026;-69
2021/10/09 00:10:07;;;;;;;25.83;23.10;;;12.60;99.90;;;;;;2082307;28;20021;-69
2021/10/09 00:11:14;;;;;;;24.30;21.65;;;12.60;99.90;;;;;;2082392;28;20458;-69
2021/10/09 00:12:15;;;;;;;27.70;23.60;;;12.60;99.90;;;;;;2082314;28;20088;-69
2021/10/09 00:13:15;;;;;;;28.65;25.50;;;12.50;99.90;;;;;;2082130;28;20030;-69
2021/10/09 00:14:16;;;;;;;28.73;25.35;;;12.50;99.90;;;;;;2082267;28;20122;-69
2021/10/09 00:15:16;;;;;;;26.50;23.63;;;12.50;99.90;;;;;;2081883;28;20127;-69
2021/10/09 00:16:17;;;;;;;26.48;23.67;;;12.50;99.90;;;;;;2082370;28;20401;-69
2021/10/09 00:17:19;;;;;;;27.88;23.38;;;12.50;99.90;;;;;;2090500;28;20531;-69
2021/10/09 00:18:20;;;;;;;25.80;22.98;;;12.50;99.90;;;;;;2083132;28;20373;-69
2021/10/09 00:19:20;;;;;;;29.17;22.70;;;12.40;99.90;;;;;;2086358;28;20025;-69
2021/10/09 00:20:21;;;;;;;26.75;23.25;;;12.40;99.90;;;;;;2082045;28;20032;-69
2021/10/09 00:21:21;;;;;;;31.15;26.20;;;12.40;99.90;;;;;;2082386;28;20477;-69
2021/10/09 00:22:22;;;;;;;25.55;22.55;;;12.40;99.90;;;;;;2082254;28;20057;-69
2021/10/09 00:23:23;;;;;;;27.90;23.85;;;12.40;99.90;;;;;;2082464;28;20365;-69
2021/10/09 00:24:23;;;;;;;26.75;24.05;;;12.30;99.90;;;;;;2082149;28;20018;-69
2021/10/09 00:25:25;;;;;;;25.73;21.63;;;12.30;99.90;;;;;;2083499;28;20022;-69
2021/10/09 00:26:26;;;;;;;27.30;24.40;;;12.30;99.90;;;;;;2090510;28;20420;-69
2021/10/09 00:27:27;;;;;;;24.85;21.95;;;12.30;99.90;;;;;;2090812;28;20021;-69
2021/10/09 00:28:27;;;;;;;27.23;24.10;;;12.30;99.90;;;;;;2090029;28;20527;-69
2021/10/09 00:29:28;;;;;;;27.15;21.77;;;12.30;99.90;;;;;;2090218;28;20028;-69
2021/10/09 00:30:28;;;;;;;25.10;22.35;;;12.20;99.90;;;;;;2090365;28;20025;-69
2021/10/09 00:31:29;;;;;;;27.63;23.00;;;12.20;99.90;;;;;;2090566;28;20051;-69
2021/10/09 00:32:29;;;;;;;23.48;20.98;;;12.20;99.90;;;;;;2090576;28;20394;-69
2021/10/09 00:33:30;;;;;;;23.65;21.25;;;12.10;99.90;;;;;;2086309;28;20116;-69
2021/10/09 00:34:30;;;;;;;23.90;21.40;;;12.10;99.90;;;;;;2082266;28;20488;-69
2021/10/09 00:35:31;;;;;;;24.50;21.95;;;12.10;99.90;;;;;;2081900;28;20021;-69
2021/10/09 00:36:32;;;;;;;23.83;20.73;;;12.10;99.90;;;;;;2090425;28;20056;-69
2021/10/09 00:37:32;;;;;;;24.88;21.25;;;12.00;99.90;;;;;;2086238;28;20033;-69
2021/10/09 00:38:33;;;;;;;25.23;22.40;;;12.00;99.90;;;;;;2089934;28;20029;-69
2021/10/09 00:39:34;;;;;;;24.30;21.80;;;12.00;99.90;;;;;;2082120;28;20033;-69
2021/10/09 00:40:34;;;;;;;25.15;22.27;;;12.00;99.90;;;;;;2082414;28;20033;-69
2021/10/09 00:41:35;;;;;;;25.55;22.70;;;12.00;99.90;;;;;;2082069;28;20496;-69
2021/10/09 00:42:35;;;;;;;26.00;22.23;;;11.90;99.90;;;;;;2082030;28;20108;-69
2021/10/09 00:43:36;;;;;;;24.88;22.20;;;11.90;99.90;;;;;;2082062;28;20110;-69
2021/10/09 00:44:37;;;;;;;27.35;24.15;;;11.90;99.90;;;;;;2081649;28;20025;-69
2021/10/09 00:45:38;;;;;;;26.58;21.85;;;11.90;99.90;;;;;;2081515;28;20106;-69
2021/10/09 00:46:40;;;;;;;25.45;21.10;;;11.80;99.90;;;;;;2083301;28;20018;-69
2021/10/09 00:47:41;;;;;;;26.30;23.08;;;11.80;99.90;;;;;;2083364;28;20029;-69
2021/10/09 00:48:42;;;;;;;28.17;23.58;;;11.80;99.90;;;;;;2081814;28;20032;-69
2021/10/09 00:49:43;;;;;;;25.20;22.50;;;11.80;99.90;;;;;;2082261;28;20025;-69
2021/10/09 00:50:43;;;;;;;26.77;23.17;;;11.80;99.90;;;;;;2081967;28;20067;-69
2021/10/09 00:51:47;;;;;;;24.15;21.60;;;11.80;99.90;;;;;;2082091;28;20025;-69
2021/10/09 00:52:49;;;;;;;23.65;20.63;;;11.70;99.90;;;;;;2082142;28;20029;-69
2021/10/09 00:53:49;;;;;;;24.73;22.02;;;11.70;99.90;;;;;;2081172;28;20041;-69
2021/10/09 00:54:51;;;;;;;26.20;22.15;;;11.70;99.90;;;;;;2081552;28;20112;-69
2021/10/09 00:55:53;;;;;;;25.08;21.33;;;11.70;99.90;;;;;;2082139;28;20041;-69
2021/10/09 00:56:56;;;;;;;24.40;21.83;;;11.60;99.90;;;;;;2080963;28;20025;-69
2021/10/09 00:57:59;;;;;;;22.67;20.27;;;11.70;99.90;;;;;;2080427;28;20500;-69
2021/10/09 00:59:01;;;;;;;27.00;22.88;;;11.60;99.90;;;;;;2083673;28;20480;-69
2021/10/09 01:00:04;;;;;;;22.55;20.25;;;11.60;99.90;;;;;;2085578;28;20091;-69
2021/10/09 01:01:05;;;;;;;25.58;22.80;;;11.60;99.90;;;;;;2080654;28;20021;-69
2021/10/09 01:02:06;;;;;;;24.58;21.30;;;11.60;99.90;;;;;;2083392;28;20119;-69
2021/10/09 01:03:07;;;;;;;24.38;21.88;;;11.50;99.90;;;;;;2087039;28;20021;-68
2021/10/09 01:04:08;;;;;;;27.13;22.73;;;11.50;99.90;;;;;;2080607;28;20049;-68
2021/10/09 01:05:10;;;;;;;24.38;21.80;;;11.50;99.90;;;;;;2080840;28;20024;-68
2021/10/09 01:06:11;;;;;;;24.55;21.38;;;11.50;99.90;;;;;;2080695;28;20057;-68
2021/10/09 01:07:12;;;;;;;21.52;19.33;;;11.50;99.90;;;;;;2081155;28;20029;-68
2021/10/09 01:08:12;;;;;;;26.80;22.20;;;11.40;99.90;;;;;;2080003;28;20021;-68
2021/10/09 01:09:13;;;;;;;27.58;21.70;;;11.40;99.90;;;;;;2081122;28;20068;-69
2021/10/09 01:10:13;;;;;;;24.95;22.27;;;11.40;99.90;;;;;;2081693;28;20029;-68
2021/10/09 01:11:14;;;;;;;29.15;22.33;;;11.40;99.90;;;;;;2080895;28;20116;-69
2021/10/09 01:12:15;;;;;;;26.80;22.45;;;11.30;99.90;;;;;;2080873;28;20539;-69
2021/10/09 01:13:16;;;;;;;24.75;22.15;;;11.30;99.90;;;;;;2080644;28;20053;-69
2021/10/09 01:14:16;;;;;;;30.42;23.17;;;11.30;99.90;;;;;;2080590;28;20496;-69
2021/10/09 01:15:23;;;;;;;24.58;21.98;;;11.30;99.90;;;;;;2087421;28;20025;-69
2021/10/09 01:16:27;;;;;;;24.55;21.75;;;11.30;99.90;;;;;;2085751;28;20025;-69
2021/10/09 01:17:28;;;;;;;30.33;27.05;;;11.20;99.90;;;;;;2088132;28;20057;-69
2021/10/09 01:18:28;;;;;;;27.35;23.17;;;11.20;99.90;;;;;;2086203;28;20017;-69
2021/10/09 01:19:29;;;;;;;26.88;23.40;;;11.20;99.90;;;;;;2086115;28;20065;-69
2021/10/09 01:20:52;;;;;;;29.92;25.65;;;11.20;99.90;;;;;;2088775;28;20029;-69
2021/10/09 01:21:53;;;;;;;38.55;30.05;;;11.20;99.90;;;;;;2088008;28;20078;-69
2021/10/09 01:22:53;;;;;;;34.55;27.92;;;11.20;99.90;;;;;;2083964;28;20038;-69
2021/10/09 01:23:54;;;;;;;36.67;30.92;;;11.20;99.90;;;;;;2081074;28;20021;-69
2021/10/09 01:24:55;;;;;;;36.88;30.23;;;11.20;99.90;;;;;;2080579;28;20037;-69
2021/10/09 01:25:56;;;;;;;35.75;29.33;;;11.20;99.90;;;;;;2083696;28;20024;-69
2021/10/09 01:26:56;;;;;;;38.00;30.88;;;11.20;99.90;;;;;;2080631;28;20021;-69
2021/10/09 01:27:57;;;;;;;44.08;33.67;;;11.20;99.90;;;;;;2080683;28;20026;-69
2021/10/09 01:28:58;;;;;;;43.90;33.35;;;11.20;99.90;;;;;;2079308;28;20108;-69
2021/10/09 01:29:58;;;;;;;37.60;31.92;;;11.20;99.90;;;;;;2080154;28;20037;-69
2021/10/09 01:30:59;;;;;;;40.95;33.28;;;11.20;99.90;;;;;;2083981;28;20508;-69
2021/10/09 01:32:00;;;;;;;39.50;34.20;;;11.20;99.90;;;;;;2084845;28;20071;-69
2021/10/09 01:33:02;;;;;;;42.25;34.92;;;11.20;99.90;;;;;;2080951;28;20044;-69
2021/10/09 01:34:03;;;;;;;48.65;35.25;;;11.20;99.90;;;;;;2082880;28;20030;-69
2021/10/09 01:35:05;;;;;;;40.17;32.72;;;11.20;99.90;;;;;;2088543;28;20041;-69
2021/10/09 01:36:06;;;;;;;39.42;35.05;;;11.20;99.90;;;;;;2087238;28;20021;-69
2021/10/09 01:37:06;;;;;;;41.30;34.22;;;11.20;99.90;;;;;;2087287;28;20461;-69
2021/10/09 01:38:08;;;;;;;42.35;35.30;;;11.20;99.90;;;;;;2084978;28;20481;-69
2021/10/09 01:39:10;;;;;;;47.47;35.63;;;11.20;99.90;;;;;;2083781;28;20508;-69
2021/10/09 01:40:12;;;;;;;47.15;35.53;;;11.20;99.90;;;;;;2080645;28;20026;-69
2021/10/09 01:41:13;;;;;;;45.20;36.60;;;11.20;99.90;;;;;;2080491;28;20056;-69
2021/10/09 01:42:14;;;;;;;46.40;36.55;;;11.20;99.90;;;;;;2080392;28;20033;-69
2021/10/09 01:43:18;;;;;;;42.92;35.50;;;11.20;99.90;;;;;;2080576;28;20025;-69
2021/10/09 01:44:18;;;;;;;44.80;34.33;;;11.30;99.90;;;;;;2080997;28;20116;-69
2021/10/09 01:45:19;;;;;;;43.60;36.30;;;11.30;99.90;;;;;;2077225;28;20028;-69
2021/10/09 01:46:20;;;;;;;43.15;35.22;;;11.30;99.90;;;;;;2088477;28;20033;-69
2021/10/09 01:47:20;;;;;;;43.25;35.85;;;11.30;99.90;;;;;;2086585;28;20029;-69
2021/10/09 01:48:32;;;;;;;40.42;34.90;;;11.30;99.90;;;;;;2087290;28;20049;-69
2021/10/09 01:49:33;;;;;;;39.70;33.45;;;11.30;99.90;;;;;;2084586;28;20025;-69
2021/10/09 01:50:34;;;;;;;43.70;34.03;;;11.30;99.90;;;;;;2083032;28;20494;-69
2021/10/09 01:51:35;;;;;;;45.30;34.75;;;11.30;99.90;;;;;;2080464;28;20028;-69
2021/10/09 01:52:36;;;;;;;40.63;34.53;;;11.30;99.90;;;;;;2080494;28;20460;-69
2021/10/09 01:53:37;;;;;;;41.38;35.28;;;11.30;99.90;;;;;;2081993;28;20116;-69
2021/10/09 01:54:37;;;;;;;40.60;35.05;;;11.30;99.90;;;;;;2088264;28;20040;-69
2021/10/09 01:55:39;;;;;;;39.92;34.90;;;11.30;99.90;;;;;;2081434;28;20027;-69
2021/10/09 01:56:40;;;;;;;41.30;35.40;;;11.30;99.90;;;;;;2080798;28;20060;-69
2021/10/09 01:57:41;;;;;;;42.80;36.67;;;11.30;99.90;;;;;;2086543;28;20055;-69
2021/10/09 01:58:41;;;;;;;41.60;35.75;;;11.30;99.90;;;;;;2083480;28;20652;-69
2021/10/09 01:59:42;;;;;;;44.70;36.30;;;11.30;99.90;;;;;;2087641;28;20029;-69
2021/10/09 02:00:42;;;;;;;41.67;33.85;;;11.30;99.90;;;;;;2088018;28;20044;-69
2021/10/09 02:01:43;;;;;;;44.25;35.35;;;11.30;99.90;;;;;;2080469;28;20043;-69
2021/10/09 02:02:43;;;;;;;41.83;35.28;;;11.30;99.90;;;;;;2087600;28;20033;-69
2021/10/09 02:03:44;;;;;;;41.17;36.08;;;11.30;99.90;;;;;;2081680;28;20028;-69
2021/10/09 02:04:45;;;;;;;45.28;36.10;;;11.40;99.90;;;;;;2080624;28;20022;-69
2021/10/09 02:05:46;;;;;;;48.83;37.60;;;11.40;99.90;;;;;;2080096;28;20032;-69
2021/10/09 02:06:46;;;;;;;44.30;36.70;;;11.40;99.90;;;;;;2080477;28;20021;-69
2021/10/09 02:07:47;;;;;;;43.00;36.63;;;11.40;99.90;;;;;;2080081;28;20078;-69
2021/10/09 02:08:47;;;;;;;44.45;36.67;;;11.40;99.90;;;;;;2084995;28;20017;-69
2021/10/09 02:09:48;;;;;;;42.20;35.17;;;11.40;99.90;;;;;;2090138;28;20052;-69
2021/10/09 02:11:51;;;;;;;49.08;38.08;;;11.40;99.90;;;;;;2081861;28;20028;-69
2021/10/09 02:12:52;;;;;;;45.67;36.65;;;11.40;99.90;;;;;;2080835;28;20026;-69
2021/10/09 02:15:06;;;;;;;42.10;35.97;;;11.30;99.90;;;;;;2085842;28;20462;-69
2021/10/09 02:25:47;;;;;;;45.30;36.15;;;11.30;99.90;;;;;;2087290;28;20062;-69
2021/10/09 02:26:48;;;;;;;47.33;37.33;;;11.30;99.90;;;;;;2080343;28;20021;-69
2021/10/09 02:27:48;;;;;;;47.33;37.20;;;11.30;99.90;;;;;;2082128;28;20100;-69
2021/10/09 02:28:49;;;;;;;44.42;36.40;;;11.30;99.90;;;;;;2087047;28;20381;-69
2021/10/09 02:29:49;;;;;;;48.08;38.28;;;11.30;99.90;;;;;;2079552;28;20029;-69
2021/10/09 02:30:52;;;;;;;44.22;37.45;;;11.30;99.90;;;;;;2079238;28;20029;-69
2021/10/09 02:31:56;;;;;;;43.85;38.35;;;11.30;99.90;;;;;;2080552;28;20120;-69
2021/10/09 02:32:57;;;;;;;44.42;35.88;;;11.30;99.90;;;;;;2080150;28;20183;-69
2021/10/09 02:33:57;;;;;;;45.55;38.33;;;11.30;99.90;;;;;;2080219;28;20072;-69
2021/10/09 02:34:58;;;;;;;45.67;37.33;;;11.30;99.90;;;;;;2079481;28;20038;-69
2021/10/09 02:35:58;;;;;;;45.45;38.03;;;11.30;99.90;;;;;;2083334;28;20567;-69
2021/10/09 02:36:59;;;;;;;45.28;38.65;;;11.40;99.90;;;;;;2088274;28;20483;-69
2021/10/09 02:38:00;;;;;;;44.17;37.88;;;11.40;99.90;;;;;;2084302;28;20059;-69
2021/10/09 02:39:01;;;;;;;46.42;36.97;;;11.40;99.90;;;;;;2083971;28;20025;-69
2021/10/09 02:40:02;;;;;;;51.88;38.97;;;11.40;99.90;;;;;;2080237;28;20025;-69
2021/10/09 02:41:03;;;;;;;46.22;38.53;;;11.30;99.90;;;;;;2079950;28;20106;-69
2021/10/09 02:42:04;;;;;;;45.17;38.85;;;11.40;99.90;;;;;;2080003;28;20079;-69
2021/10/09 02:43:05;;;;;;;48.50;38.85;;;11.30;99.90;;;;;;2085464;28;20430;-69
2021/10/09 02:44:06;;;;;;;46.80;40.28;;;11.30;99.90;;;;;;2083189;28;20458;-69
2021/10/09 02:45:07;;;;;;;47.45;38.40;;;11.30;99.90;;;;;;2080050;28;20038;-69
2021/10/09 02:46:07;;;;;;;49.35;39.80;;;11.30;99.90;;;;;;2080328;28;20478;-70
2021/10/09 02:47:08;;;;;;;50.20;39.60;;;11.30;99.90;;;;;;2080006;28;20465;-69
2021/10/09 02:48:10;;;;;;;47.63;38.75;;;11.30;99.90;;;;;;2079598;28;20108;-69
2021/10/09 02:49:11;;;;;;;44.95;38.97;;;11.30;99.90;;;;;;2087205;28;20025;-69
2021/10/09 02:50:16;;;;;;;48.60;38.97;;;11.30;99.90;;;;;;2087754;28;20060;-69
2021/10/09 02:51:16;;;;;;;54.92;39.95;;;11.30;99.90;;;;;;2088341;28;20096;-69
2021/10/09 02:52:17;;;;;;;47.03;39.67;;;11.30;99.90;;;;;;2087386;28;20021;-69
2021/10/09 02:53:17;;;;;;;49.15;40.03;;;11.30;99.90;;;;;;2087871;28;20020;-69
2021/10/09 02:54:18;;;;;;;47.08;39.63;;;11.30;99.90;;;;;;2088010;28;20029;-69
2021/10/09 02:55:19;;;;;;;50.03;39.40;;;11.30;99.90;;;;;;2088277;28;20029;-69
2021/10/09 02:56:20;;;;;;;49.97;39.55;;;11.30;99.90;;;;;;2081217;28;20617;-69
2021/10/09 02:57:20;;;;;;;45.83;38.20;;;11.30;99.90;;;;;;2083686;28;20102;-69
2021/10/09 02:58:21;;;;;;;46.78;39.50;;;11.30;99.90;;;;;;2084660;28;20033;-69
2021/10/09 02:59:21;;;;;;;46.67;39.30;;;11.30;99.90;;;;;;2086039;28;20803;-69
2021/10/09 03:00:23;;;;;;;48.35;40.60;;;11.30;99.90;;;;;;2082113;28;20060;-69
2021/10/09 03:01:23;;;;;;;44.55;38.03;;;11.30;99.90;;;;;;2080124;28;20029;-69
2021/10/09 03:02:24;;;;;;;47.42;38.45;;;11.30;99.90;;;;;;2079730;28;20060;-69
2021/10/09 03:03:25;;;;;;;45.85;39.67;;;11.30;99.90;;;;;;2080091;28;20478;-69
2021/10/09 03:04:25;;;;;;;46.63;39.03;;;11.30;99.90;;;;;;2080647;28;20039;-69
2021/10/09 03:05:26;;;;;;;49.58;40.60;;;11.30;99.90;;;;;;2087059;28;20032;-69
2021/10/09 03:06:27;;;;;;;48.08;40.17;;;11.30;99.90;;;;;;2088034;28;20021;-69
2021/10/09 03:07:27;;;;;;;49.80;40.53;;;11.30;99.90;;;;;;2088277;28;20603;-69
2021/10/09 03:08:28;;;;;;;47.30;39.13;;;11.30;99.90;;;;;;2087635;28;20025;-69
2021/10/09 03:09:28;;;;;;;46.05;40.42;;;11.30;99.90;;;;;;2087878;28;20080;-69
2021/10/09 03:10:29;;;;;;;50.78;41.38;;;11.30;99.90;;;;;;2086092;28;20021;-69
2021/10/09 03:11:30;;;;;;;50.03;40.70;;;11.30;99.90;;;;;;2083021;28;20087;-69
2021/10/09 03:12:30;;;;;;;48.58;39.15;;;11.30;99.90;;;;;;2080182;28;20583;-69
2021/10/09 03:13:31;;;;;;;51.08;40.72;;;11.30;99.90;;;;;;2079975;28;20040;-69
2021/10/09 03:14:31;;;;;;;52.28;42.20;;;11.30;99.90;;;;;;2079648;28;20056;-69
2021/10/09 03:15:32;;;;;;;47.67;41.10;;;11.30;99.90;;;;;;2079852;28;20450;-69
2021/10/09 03:16:33;;;;;;;49.15;40.30;;;11.30;99.90;;;;;;2082641;28;20087;-69
2021/10/09 03:17:33;;;;;;;50.03;40.75;;;11.30;99.90;;;;;;2087714;28;20024;-69
2021/10/09 03:18:34;;;;;;;50.83;41.83;;;11.30;99.90;;;;;;2079356;28;20037;-69
2021/10/09 03:19:34;;;;;;;49.95;42.78;;;11.30;99.90;;;;;;2079732;28;20029;-69
2021/10/09 03:20:36;;;;;;;54.00;41.97;;;11.30;99.90;;;;;;2079114;28;20466;-69
2021/10/09 03:21:36;;;;;;;49.67;40.47;;;11.30;99.90;;;;;;2079715;28;20025;-69
2021/10/09 03:22:37;;;;;;;53.05;39.30;;;11.30;99.90;;;;;;2079735;28;20037;-69
2021/10/09 03:23:38;;;;;;;47.05;39.33;;;11.20;99.90;;;;;;2081149;28;20057;-69
2021/10/09 03:24:38;;;;;;;51.40;41.22;;;11.30;99.90;;;;;;2086401;28;20455;-70
2021/10/09 03:25:39;;;;;;;49.28;39.78;;;11.20;99.90;;;;;;2087741;28;20413;-69
2021/10/09 03:26:39;;;;;;;49.95;40.72;;;11.20;99.90;;;;;;2080061;28;20967;-68
2021/10/09 03:27:41;;;;;;;50.10;40.03;;;11.20;99.90;;;;;;2079435;28;20025;-69
2021/10/09 03:28:41;;;;;;;50.40;40.30;;;11.20;99.90;;;;;;2079235;28;20017;-70
2021/10/09 03:29:42;;;;;;;53.58;42.03;;;11.20;99.90;;;;;;2079431;28;20491;-69
2021/10/09 03:30:42;;;;;;;48.20;40.20;;;11.20;99.90;;;;;;2079923;28;20051;-69
2021/10/09 03:31:43;;;;;;;48.58;41.80;;;11.20;99.90;;;;;;2079850;28;20037;-69
2021/10/09 03:32:44;;;;;;;49.25;40.97;;;11.20;99.90;;;;;;2079629;28;20477;-69
2021/10/09 03:33:44;;;;;;;50.67;40.83;;;11.20;99.90;;;;;;2079636;28;20029;-69
2021/10/09 03:34:45;;;;;;;51.80;39.90;;;11.20;99.90;;;;;;2079703;28;20037;-69
2021/10/09 03:35:45;;;;;;;50.55;42.75;;;11.20;99.90;;;;;;2081747;28;20039;-69
2021/10/09 03:36:46;;;;;;;51.17;41.58;;;11.20;99.90;;;;;;2088033;28;20033;-69
2021/10/09 03:37:47;;;;;;;52.97;40.88;;;11.20;99.90;;;;;;2083545;28;20034;-69
2021/10/09 03:38:48;;;;;;;50.22;42.35;;;11.20;99.90;;;;;;2085021;28;20108;-69
2021/10/09 03:39:50;;;;;;;49.38;41.80;;;11.20;99.90;;;;;;2079456;28;20060;-69
2021/10/09 03:40:57;;;;;;;54.40;41.63;;;11.20;99.90;;;;;;2079796;28;20358;-69
2021/10/09 03:42:06;;;;;;;50.30;40.95;;;11.20;99.90;;;;;;2079564;28;20033;-69
2021/10/09 03:43:10;;;;;;;51.22;40.92;;;11.20;99.90;;;;;;2079459;28;20025;-69
2021/10/09 03:44:11;;;;;;;50.95;40.20;;;11.20;99.90;;;;;;2085515;28;20040;-69
2021/10/09 03:46:26;;;;;;;52.28;41.95;;;11.20;99.90;;;;;;2087226;28;20365;-70
2021/10/09 03:47:47;;;;;;;50.50;41.35;;;11.20;99.90;;;;;;2081351;28;20040;-69
2021/10/09 03:49:02;;;;;;;49.28;40.00;;;11.20;99.90;;;;;;2079211;28;20017;-69
2021/10/09 03:50:19;;;;;;;49.88;39.75;;;11.10;99.90;;;;;;2079467;28;20075;-69
2021/10/09 03:52:39;;;;;;;49.05;39.42;;;11.10;99.90;;;;;;2080107;28;20037;-69
2021/10/09 03:53:39;;;;;;;47.85;40.75;;;11.10;99.90;;;;;;2079593;28;20229;-69
2021/10/09 03:54:40;;;;;;;51.15;40.83;;;11.10;99.90;;;;;;2087755;28;20551;-69
2021/10/09 03:55:40;;;;;;;52.22;40.97;;;11.10;99.90;;;;;;2081337;28;20083;-69
2021/10/09 03:56:41;;;;;;;50.85;42.00;;;11.10;99.90;;;;;;2086042;28;20106;-69
2021/10/09 03:57:42;;;;;;;49.97;41.05;;;11.10;99.90;;;;;;2087375;28;20025;-69
2021/10/09 03:58:42;;;;;;;45.35;38.35;;;11.10;99.90;;;;;;2082173;28;20033;-69
2021/10/09 03:59:43;;;;;;;45.58;38.40;;;11.10;99.90;;;;;;2087104;28;20029;-69
2021/10/09 04:00:44;;;;;;;52.05;39.83;;;11.10;99.90;;;;;;2079572;28;20065;-69
2021/10/09 04:01:44;;;;;;;50.47;42.22;;;11.10;99.90;;;;;;2079727;28;20033;-69
2021/10/09 04:02:45;;;;;;;53.05;41.67;;;11.10;99.90;;;;;;2079373;28;20052;-69
2021/10/09 04:03:46;;;;;;;48.67;41.92;;;11.10;99.90;;;;;;2079557;28;20025;-69
2021/10/09 04:04:46;;;;;;;51.03;42.80;;;11.10;99.90;;;;;;2080820;28;20025;-69
2021/10/09 04:05:47;;;;;;;51.95;42.08;;;11.10;99.90;;;;;;2079656;28;20524;-69
2021/10/09 04:06:47;;;;;;;54.50;43.53;;;11.10;99.90;;;;;;2080107;28;20124;-69
2021/10/09 04:07:48;;;;;;;52.42;41.85;;;11.10;99.90;;;;;;2078793;28;20033;-69
2021/10/09 04:08:48;;;;;;;47.17;37.40;;;11.10;99.90;;;;;;2079150;28;20128;-69
2021/10/09 04:09:49;;;;;;;51.70;42.17;;;11.10;99.90;;;;;;2079468;28;20025;-70
2021/10/09 04:10:49;;;;;;;47.47;41.40;;;11.10;99.90;;;;;;2079492;28;20451;-69
2021/10/09 04:11:50;;;;;;;44.15;39.30;;;11.10;99.90;;;;;;2079668;28;20022;-69
2021/10/09 04:12:50;;;;;;;51.03;40.92;;;11.00;99.90;;;;;;2081358;28;20079;-69
2021/10/09 04:13:51;;;;;;;52.53;42.17;;;11.10;99.90;;;;;;2079850;28;20034;-69
2021/10/09 04:14:51;;;;;;;50.03;40.22;;;11.10;99.90;;;;;;2079343;28;20108;-69
2021/10/09 04:15:52;;;;;;;48.70;40.75;;;11.10;99.90;;;;;;2079747;28;20021;-69
2021/10/09 04:16:52;;;;;;;47.55;39.55;;;11.00;99.90;;;;;;2084565;28;20032;-69
2021/10/09 04:17:53;;;;;;;48.97;40.28;;;11.10;99.90;;;;;;2084928;28;20080;-69
2021/10/09 04:18:53;;;;;;;52.30;41.40;;;11.00;99.90;;;;;;2081787;28;20021;-69
2021/10/09 04:19:54;;;;;;;50.63;40.60;;;11.00;99.90;;;;;;2081561;28;20029;-69
2021/10/09 04:20:55;;;;;;;46.80;39.95;;;11.00;99.90;;;;;;2079643;28;20033;-69
2021/10/09 04:21:55;;;;;;;51.20;39.90;;;11.00;99.90;;;;;;2079492;28;20435;-69
2021/10/09 04:22:56;;;;;;;49.10;42.60;;;11.00;99.90;;;;;;2078826;28;20127;-69
2021/10/09 04:23:56;;;;;;;48.72;42.13;;;11.00;99.90;;;;;;2078983;28;20080;-69
2021/10/09 04:24:57;;;;;;;50.38;40.67;;;11.00;99.90;;;;;;2079688;28;20017;-69
2021/10/09 04:25:57;;;;;;;51.70;39.95;;;11.00;99.90;;;;;;2078925;28;20030;-69
2021/10/09 04:26:58;;;;;;;51.83;41.53;;;11.00;99.90;;;;;;2080041;28;20087;-69
2021/10/09 04:27:59;;;;;;;51.05;40.63;;;11.00;99.90;;;;;;2079219;28;20032;-69
2021/10/09 04:28:59;;;;;;;55.22;42.85;;;11.00;99.90;;;;;;2079003;28;20070;-69
2021/10/09 04:30:00;;;;;;;51.47;41.30;;;11.00;99.90;;;;;;2079414;28;20049;-69
2021/10/09 04:31:01;;;;;;;50.13;42.83;;;11.00;99.90;;;;;;2080574;28;20101;-69
2021/10/09 04:32:02;;;;;;;54.80;42.67;;;11.00;99.90;;;;;;2079410;28;20052;-69
2021/10/09 04:33:03;;;;;;;54.28;43.60;;;11.00;99.90;;;;;;2080932;28;20025;-70
2021/10/09 04:34:03;;;;;;;47.47;40.67;;;11.00;99.90;;;;;;2080983;28;20108;-69
2021/10/09 04:35:04;;;;;;;50.65;40.75;;;11.00;99.90;;;;;;2080609;28;20029;-69
2021/10/09 04:36:05;;;;;;;50.33;41.25;;;11.00;99.90;;;;;;2086655;28;20107;-69
2021/10/09 04:37:05;;;;;;;50.95;41.40;;;11.00;99.90;;;;;;2089309;28;20043;-69
2021/10/09 04:38:07;;;;;;;48.05;41.35;;;11.00;99.90;;;;;;2085383;28;20033;-69
2021/10/09 04:39:08;;;;;;;48.40;39.05;;;11.00;99.90;;;;;;2085428;28;20033;-69
2021/10/09 04:40:10;;;;;;;45.22;37.03;;;11.00;99.90;;;;;;2080859;28;20108;-69
2021/10/09 04:41:10;;;;;;;45.92;39.08;;;11.00;99.90;;;;;;2080967;28;20025;-69
2021/10/09 04:42:11;;;;;;;41.00;36.13;;;11.00;99.90;;;;;;2080143;28;20048;-69
2021/10/09 04:43:11;;;;;;;48.13;38.33;;;10.90;99.90;;;;;;2080264;28;20453;-69
2021/10/09 04:44:12;;;;;;;45.63;38.28;;;10.90;99.90;;;;;;2080820;28;20028;-69
2021/10/09 04:45:12;;;;;;;40.70;33.50;;;10.90;99.90;;;;;;2087899;28;20021;-69
2021/10/09 04:46:13;;;;;;;44.28;38.17;;;10.90;99.90;;;;;;2081121;28;20021;-69
2021/10/09 04:47:13;;;;;;;43.53;37.25;;;10.90;99.90;;;;;;2081379;28;20013;-69
2021/10/09 04:48:14;;;;;;;48.78;39.95;;;10.90;99.90;;;;;;2079175;28;20022;-69
2021/10/09 04:49:14;;;;;;;50.55;39.70;;;10.90;99.90;;;;;;2080363;28;20068;-69
2021/10/09 04:50:15;;;;;;;48.60;39.47;;;10.90;99.90;;;;;;2080870;28;20018;-69
2021/10/09 04:51:15;;;;;;;49.22;41.42;;;10.90;99.90;;;;;;2082065;28;20061;-69
2021/10/09 04:52:16;;;;;;;55.80;42.55;;;10.90;99.90;;;;;;2083267;28;20032;-69
2021/10/09 04:53:17;;;;;;;48.40;38.60;;;10.90;99.90;;;;;;2081036;28;20104;-69
2021/10/09 04:54:17;;;;;;;43.42;36.88;;;10.90;99.90;;;;;;2081005;28;20470;-69
2021/10/09 04:55:18;;;;;;;48.63;37.97;;;10.90;99.90;;;;;;2080697;28;20017;-69
2021/10/09 04:56:18;;;;;;;50.42;40.83;;;10.80;99.90;;;;;;2081010;28;20101;-69
2021/10/09 04:57:19;;;;;;;46.65;39.47;;;10.90;99.90;;;;;;2084212;28;20020;-69
2021/10/09 04:58:19;;;;;;;51.13;41.38;;;10.90;99.90;;;;;;2086886;28;20025;-69
2021/10/09 04:59:20;;;;;;;43.85;35.70;;;10.80;99.90;;;;;;2082985;28;20476;-69
2021/10/09 05:00:21;;;;;;;49.38;38.05;;;10.80;99.90;;;;;;2080750;28;20027;-69
2021/10/09 05:01:22;;;;;;;46.83;38.28;;;10.80;99.90;;;;;;2080743;28;20025;-69
2021/10/09 05:02:22;;;;;;;47.75;40.30;;;10.80;99.90;;;;;;2080850;28;20030;-69
2021/10/09 05:03:23;;;;;;;44.65;36.25;;;10.80;99.90;;;;;;2080561;28;20033;-69
2021/10/09 05:04:24;;;;;;;43.28;34.63;;;10.80;99.90;;;;;;2081101;28;20476;-69
2021/10/09 05:05:24;;;;;;;51.53;35.75;;;10.80;99.90;;;;;;2081383;28;20018;-69
2021/10/09 05:06:25;;;;;;;41.53;35.03;;;10.80;99.90;;;;;;2087256;28;20090;-69
2021/10/09 05:07:25;;;;;;;42.40;34.97;;;10.80;99.90;;;;;;2080704;28;20351;-69
2021/10/09 05:08:26;;;;;;;40.25;33.42;;;10.80;99.90;;;;;;2079666;28;20025;-69
2021/10/09 05:09:26;;;;;;;44.83;37.30;;;10.80;99.90;;;;;;2079894;28;20470;-69
2021/10/09 05:10:28;;;;;;;49.70;38.30;;;10.80;99.90;;;;;;2080660;28;20441;-69
2021/10/09 05:11:29;;;;;;;52.97;41.53;;;10.80;99.90;;;;;;2080984;28;20033;-69
2021/10/09 05:12:29;;;;;;;42.53;37.95;;;10.80;99.90;;;;;;2080737;28;20041;-69
2021/10/09 05:13:30;;;;;;;50.35;39.90;;;10.80;99.90;;;;;;2080646;28;20103;-69
2021/10/09 05:14:30;;;;;;;43.88;37.58;;;10.70;99.90;;;;;;2080901;28;20068;-69
2021/10/09 05:15:32;;;;;;;46.28;38.63;;;10.70;99.90;;;;;;2080084;28;20045;-69
2021/10/09 05:16:32;;;;;;;45.78;38.13;;;10.70;99.90;;;;;;2083287;28;20033;-69
2021/10/09 05:17:33;;;;;;;49.45;39.90;;;10.70;99.90;;;;;;2088603;28;20045;-69
2021/10/09 05:18:33;;;;;;;46.20;38.35;;;10.70;99.90;;;;;;2080057;28;20107;-69
2021/10/09 05:19:34;;;;;;;49.58;39.05;;;10.70;99.90;;;;;;2080609;28;20025;-69
2021/10/09 05:20:35;;;;;;;40.67;34.38;;;10.70;99.90;;;;;;2080984;28;20026;-69
2021/10/09 05:21:36;;;;;;;38.45;34.28;;;10.70;99.90;;;;;;2080526;28;20033;-69
2021/10/09 05:22:37;;;;;;;44.35;36.13;;;10.70;99.90;;;;;;2083393;28;20105;-69
2021/10/09 05:23:38;;;;;;;42.67;36.58;;;10.70;99.90;;;;;;2088988;28;20025;-69
2021/10/09 05:24:38;;;;;;;46.85;37.33;;;10.70;99.90;;;;;;2088878;28;20021;-69
2021/10/09 05:25:41;;;;;;;45.67;39.20;;;10.60;99.90;;;;;;2088896;28;20098;-69